createdAt,value
2022-11-07T00:02:24.817Z,28.23
2022-11-07T00:05:15.008Z,26.30
2022-11-07T00:08:03.807Z,26.87
2022-11-07T00:10:55.799Z,25.40
2022-11-07T00:13:44.384Z,26.87
2022-11-07T00:16:34.411Z,26.97
2022-11-07T00:19:24.546Z,27.83
2022-11-07T00:22:14.557Z,27.67
2022-11-07T00:25:03.171Z,27.30
2022-11-07T00:27:51.812Z,27.27
2022-11-07T00:30:40.616Z,27.87
2022-11-07T00:33:29.308Z,26.40
2022-11-07T00:36:19.784Z,27.37
2022-11-07T00:39:11.017Z,28.00
2022-11-07T00:42:00.020Z,26.00
2022-11-07T00:44:48.882Z,27.37
2022-11-07T00:47:37.735Z,26.50
2022-11-07T00:50:26.512Z,26.60
2022-11-07T00:53:16.093Z,25.93
2022-11-07T00:56:08.878Z,26.73
2022-11-07T00:58:58.594Z,27.30
2022-11-07T01:01:47.360Z,27.87
2022-11-07T01:04:53.410Z,27.50
2022-11-07T01:07:42.139Z,27.20
2022-11-07T01:10:30.795Z,28.83
2022-11-07T01:13:20.978Z,28.57
2022-11-07T01:16:11.131Z,29.47
2022-11-07T01:19:00.110Z,29.30
2022-11-07T01:21:48.787Z,28.87
2022-11-07T01:24:37.679Z,29.03
2022-11-07T01:27:26.457Z,27.83
2022-11-07T01:30:16.702Z,29.83
2022-11-07T01:33:05.498Z,27.97
2022-11-07T01:35:54.071Z,26.40
2022-11-07T01:38:44.597Z,27.13
2022-11-07T01:41:35.078Z,28.03
2022-11-07T01:44:53.694Z,28.23
2022-11-07T01:47:43.870Z,28.47
2022-11-07T01:50:32.613Z,29.57
2022-11-07T01:53:21.603Z,29.57
2022-11-07T01:56:14.335Z,29.93
2022-11-07T01:59:04.339Z,30.20
2022-11-07T02:01:53.397Z,30.20
2022-11-07T02:04:44.075Z,29.10
2022-11-07T02:07:34.020Z,31.50
2022-11-07T02:10:22.904Z,31.50
2022-11-07T02:13:16.207Z,31.10
2022-11-07T02:16:06.287Z,30.53
2022-11-07T02:18:55.544Z,31.53
2022-11-07T02:21:52.793Z,30.93
2022-11-07T02:24:43.274Z,30.90
2022-11-07T02:27:34.848Z,31.27
2022-11-07T02:30:25.720Z,30.07
2022-11-07T02:33:22.056Z,30.33
2022-11-07T02:36:16.042Z,29.70
2022-11-07T02:39:04.955Z,27.37
2022-11-07T02:41:56.194Z,27.90
2022-11-07T02:44:44.987Z,27.03
2022-11-07T02:47:33.764Z,26.60
2022-11-07T02:50:22.574Z,27.50
2022-11-07T02:53:11.386Z,28.63
2022-11-07T02:56:00.302Z,27.77
2022-11-07T02:58:52.524Z,26.83
2022-11-07T03:01:41.294Z,27.80
2022-11-07T03:04:30.102Z,26.23
2022-11-07T03:07:18.787Z,26.03
2022-11-07T03:10:09.183Z,27.30
2022-11-07T03:12:57.803Z,27.50
2022-11-07T03:15:47.910Z,27.40
2022-11-07T03:18:36.723Z,26.20
2022-11-07T03:21:25.364Z,26.60
2022-11-07T03:24:14.259Z,27.07
2022-11-07T03:27:02.971Z,26.93
2022-11-07T03:29:51.924Z,27.42
2022-11-07T03:32:41.997Z,27.87
2022-11-07T03:35:30.714Z,28.40
2022-11-07T03:38:19.430Z,28.70
2022-11-07T03:41:08.280Z,28.57
2022-11-07T03:43:56.982Z,27.80
2022-11-07T03:46:45.569Z,28.40
2022-11-07T03:49:35.754Z,28.97
2022-11-07T03:52:24.546Z,28.87
2022-11-07T03:55:16.201Z,29.10
2022-11-07T03:58:04.926Z,29.33
2022-11-07T04:00:53.933Z,29.57
2022-11-07T04:03:42.601Z,28.10
2022-11-07T04:06:33.569Z,29.40
2022-11-07T04:09:22.108Z,29.17
2022-11-07T04:12:29.026Z,28.70
2022-11-07T04:15:40.668Z,29.43
2022-11-07T04:18:29.356Z,29.50
2022-11-07T04:21:18.034Z,29.77
2022-11-07T04:24:08.882Z,29.90
2022-11-07T04:27:14.939Z,30.43
2022-11-07T04:30:19.351Z,31.43
2022-11-07T04:33:08.537Z,31.90
2022-11-07T04:35:57.667Z,33.83
2022-11-07T04:38:46.395Z,33.60
2022-11-07T04:41:36.435Z,35.63
2022-11-07T04:44:25.139Z,34.80
2022-11-07T04:47:14.069Z,35.13
2022-11-07T04:50:02.873Z,35.28
2022-11-07T04:52:51.449Z,35.35
2022-11-07T04:55:40.212Z,34.87
2022-11-07T04:58:30.269Z,35.88
2022-11-07T05:01:19.128Z,34.63
2022-11-07T05:04:07.991Z,35.13
2022-11-07T05:06:57.246Z,35.53
2022-11-07T05:09:46.051Z,35.30
2022-11-07T05:12:34.830Z,35.27
2022-11-07T05:15:28.856Z,34.70
2022-11-07T05:18:21.225Z,36.60
2022-11-07T05:21:10.101Z,34.88
2022-11-07T05:23:58.788Z,35.17
2022-11-07T05:26:47.353Z,33.77
2022-11-07T05:29:35.989Z,35.95
2022-11-07T05:32:26.305Z,35.17
2022-11-07T05:35:15.241Z,34.50
2022-11-07T05:38:04.107Z,34.92
2022-11-07T05:40:52.750Z,34.88
2022-11-07T05:43:41.753Z,34.78
2022-11-07T05:46:30.936Z,34.38
2022-11-07T05:49:21.066Z,33.75
2022-11-07T05:52:09.815Z,33.97
2022-11-07T05:54:58.443Z,34.03
2022-11-07T05:57:47.074Z,35.85
2022-11-07T06:00:35.737Z,33.47
2022-11-07T06:03:24.546Z,33.65
2022-11-07T06:06:14.596Z,32.67
2022-11-07T06:09:03.316Z,32.97
2022-11-07T06:11:52.000Z,32.15
2022-11-07T06:14:40.620Z,33.20
2022-11-07T06:17:29.352Z,31.45
2022-11-07T06:20:18.136Z,32.33
2022-11-07T06:23:08.600Z,32.15
2022-11-07T06:25:57.401Z,30.95
2022-11-07T06:28:46.020Z,30.83
2022-11-07T06:31:34.828Z,29.65
2022-11-07T06:34:23.556Z,30.10
2022-11-07T06:37:12.170Z,29.90
2022-11-07T06:40:02.289Z,29.75
2022-11-07T06:42:50.959Z,28.33
2022-11-07T06:45:40.466Z,29.33
2022-11-07T06:48:29.202Z,28.33
2022-11-07T06:51:18.503Z,28.52
2022-11-07T06:54:07.417Z,26.98
2022-11-07T06:56:57.495Z,26.58
2022-11-07T06:59:51.460Z,28.10
2022-11-07T07:05:49.382Z,26.08
2022-11-07T07:08:38.128Z,26.00
2022-11-07T07:11:26.702Z,25.20
2022-11-07T07:14:16.668Z,26.35
2022-11-07T07:17:05.502Z,26.73
2022-11-07T07:19:54.230Z,26.98
2022-11-07T07:22:43.197Z,25.40
2022-11-07T07:25:31.949Z,25.73
2022-11-07T07:28:20.584Z,25.20
2022-11-07T07:31:20.451Z,25.67
2022-11-07T07:34:09.413Z,24.73
2022-11-07T07:36:58.020Z,25.80
2022-11-07T07:39:46.719Z,25.80
2022-11-07T07:42:35.444Z,25.75
2022-11-07T07:45:24.219Z,24.63
2022-11-07T07:48:14.213Z,25.15
2022-11-07T07:51:02.922Z,24.40
2022-11-07T07:53:51.896Z,24.77
2022-11-07T07:56:40.650Z,23.88
2022-11-07T07:59:29.374Z,25.30
2022-11-07T08:02:18.025Z,24.73
2022-11-07T08:05:09.197Z,24.45
2022-11-07T08:07:58.069Z,25.00
2022-11-07T08:10:53.695Z,23.70
2022-11-07T08:13:42.410Z,22.90
2022-11-07T08:16:31.087Z,24.35
2022-11-07T08:19:19.863Z,24.42
2022-11-07T08:22:11.493Z,23.85
2022-11-07T08:25:00.339Z,23.45
2022-11-07T08:27:49.056Z,24.73
2022-11-07T08:30:37.834Z,24.50
2022-11-07T08:33:27.010Z,22.85
2022-11-07T08:36:15.761Z,23.55
2022-11-07T08:39:05.913Z,23.45
2022-11-07T08:41:54.520Z,23.45
2022-11-07T08:44:43.162Z,23.10
2022-11-07T08:47:31.835Z,23.58
2022-11-07T08:50:24.575Z,24.10
2022-11-07T08:53:13.763Z,22.42
2022-11-07T08:56:05.950Z,22.70
2022-11-07T08:58:54.686Z,21.50
2022-11-07T09:02:15.058Z,21.10
2022-11-07T09:04:52.002Z,21.70
2022-11-07T09:07:41.205Z,23.08
2022-11-07T09:10:29.895Z,21.25
2022-11-07T09:13:21.335Z,21.67
2022-11-07T09:16:10.062Z,21.00
2022-11-07T09:18:58.706Z,21.52
2022-11-07T09:21:48.713Z,20.13
2022-11-07T09:24:37.518Z,20.13
2022-11-07T09:27:26.555Z,19.70
2022-11-07T09:30:17.401Z,19.52
2022-11-07T09:33:06.207Z,19.50
2022-11-07T09:35:54.910Z,20.90
2022-11-07T09:38:44.047Z,18.77
2022-11-07T09:41:45.380Z,19.80
2022-11-07T09:44:45.516Z,18.73
2022-11-07T09:47:39.030Z,19.67
2022-11-07T09:50:32.538Z,18.58
2022-11-07T09:53:31.579Z,18.83
2022-11-07T09:56:20.434Z,18.10
2022-11-07T09:59:15.329Z,17.70
2022-11-07T10:02:05.684Z,17.60
2022-11-07T10:04:59.786Z,17.67
2022-11-07T10:07:59.127Z,18.20
2022-11-07T10:10:52.396Z,15.65
2022-11-07T10:13:56.134Z,15.88
2022-11-07T10:16:56.582Z,15.10
2022-11-07T10:20:04.518Z,14.90
2022-11-07T10:23:05.128Z,15.10
2022-11-07T10:26:01.178Z,16.15
2022-11-07T10:28:55.021Z,15.82
2022-11-07T10:31:47.408Z,14.50
2022-11-07T10:34:39.113Z,14.32
2022-11-07T10:37:29.041Z,14.85
2022-11-07T10:40:21.656Z,14.73
2022-11-07T10:43:26.736Z,14.50
2022-11-07T10:46:19.258Z,14.25
2022-11-07T10:49:21.034Z,14.23
2022-11-07T10:52:11.493Z,14.13
2022-11-07T10:55:09.174Z,14.77
2022-11-07T10:58:00.825Z,13.63
2022-11-07T11:01:03.595Z,14.05
2022-11-07T11:03:52.551Z,13.63
2022-11-07T11:06:41.582Z,13.65
2022-11-07T11:09:33.313Z,13.70
2022-11-07T11:12:27.716Z,12.23
2022-11-07T11:15:18.171Z,13.10
2022-11-07T11:18:08.276Z,13.02
2022-11-07T11:21:01.591Z,13.20
2022-11-07T11:23:51.155Z,13.45
2022-11-07T11:26:44.009Z,12.52
2022-11-07T11:29:41.642Z,13.30
2022-11-07T11:32:35.460Z,12.88
2022-11-07T11:35:41.276Z,12.80
2022-11-07T11:38:36.262Z,11.40
2022-11-07T11:41:32.505Z,11.98
2022-11-07T11:44:24.882Z,10.90
2022-11-07T11:47:22.509Z,11.15
2022-11-07T11:50:16.841Z,11.38
2022-11-07T11:53:05.648Z,10.32
2022-11-07T11:56:04.166Z,11.25
2022-11-07T11:59:08.369Z,12.20
2022-11-07T12:02:07.100Z,10.30
2022-11-07T12:05:03.409Z,10.38
2022-11-07T12:07:59.958Z,10.15
2022-11-07T12:10:55.344Z,10.25
2022-11-07T12:13:54.002Z,10.35
2022-11-07T12:16:52.747Z,9.88
2022-11-07T12:19:48.123Z,10.13
2022-11-07T12:22:53.674Z,10.93
2022-11-07T12:25:47.231Z,11.10
2022-11-07T12:28:46.769Z,12.05
2022-11-07T12:31:44.805Z,10.23
2022-11-07T12:34:46.981Z,9.57
2022-11-07T12:38:03.722Z,9.70
2022-11-07T12:41:03.396Z,9.50
2022-11-07T12:44:01.675Z,9.88
2022-11-07T12:46:54.110Z,8.88
2022-11-07T12:50:02.237Z,8.82
2022-11-07T12:53:13.569Z,9.73
2022-11-07T12:56:09.429Z,8.73
2022-11-07T12:58:59.035Z,8.77
2022-11-07T13:01:56.161Z,8.70
2022-11-07T13:04:52.084Z,9.15
2022-11-07T13:07:46.516Z,8.93
2022-11-07T13:10:44.645Z,8.80
2022-11-07T13:13:44.821Z,8.85
2022-11-07T13:16:36.740Z,9.00
2022-11-07T13:19:32.943Z,9.02
2022-11-07T13:22:25.730Z,9.32
2022-11-07T13:25:29.238Z,9.48
2022-11-07T13:28:37.858Z,9.15
2022-11-07T13:31:35.033Z,10.48
2022-11-07T13:34:26.464Z,9.57
2022-11-07T13:37:20.432Z,9.55
2022-11-07T13:40:22.991Z,9.48
2022-11-07T13:43:16.585Z,9.70
2022-11-07T13:46:09.453Z,9.60
2022-11-07T13:49:02.168Z,9.23
2022-11-07T13:51:52.524Z,9.35
2022-11-07T13:54:50.363Z,9.95
2022-11-07T13:57:42.735Z,9.63
2022-11-07T14:00:33.640Z,10.13
2022-11-07T14:03:29.308Z,8.82
2022-11-07T14:06:19.024Z,9.52
2022-11-07T14:09:07.785Z,9.23
2022-11-07T14:11:57.622Z,9.45
2022-11-07T14:14:46.949Z,8.75
2022-11-07T14:17:37.493Z,9.15
2022-11-07T14:20:28.101Z,8.10
2022-11-07T14:23:18.018Z,8.60
2022-11-07T14:26:19.315Z,8.18
2022-11-07T14:29:08.051Z,7.82
2022-11-07T14:32:02.171Z,7.78
2022-11-07T14:34:54.020Z,8.38
2022-11-07T14:37:44.130Z,7.47
2022-11-07T14:40:33.097Z,7.35
2022-11-07T14:43:24.881Z,7.72
2022-11-07T14:46:19.266Z,8.10
2022-11-07T14:49:08.360Z,8.25
2022-11-07T14:51:57.755Z,7.78
2022-11-07T14:54:50.032Z,7.43
2022-11-07T14:57:41.550Z,7.97
2022-11-07T15:00:31.391Z,8.05
2022-11-07T15:03:22.858Z,8.40
2022-11-07T15:06:24.770Z,8.68
2022-11-07T15:09:14.002Z,7.70
2022-11-07T15:12:17.634Z,8.45
2022-11-07T15:15:12.087Z,8.50
2022-11-07T15:18:03.694Z,8.93
2022-11-07T15:20:59.749Z,8.80
2022-11-07T15:23:48.392Z,9.15
2022-11-07T15:26:37.087Z,9.15
2022-11-07T15:29:31.328Z,9.15
2022-11-07T15:32:22.106Z,9.43
2022-11-07T15:35:42.259Z,8.32
2022-11-07T15:38:27.554Z,8.52
2022-11-07T15:41:16.399Z,8.73
2022-11-07T15:44:05.468Z,9.00
2022-11-07T15:46:55.441Z,9.43
2022-11-07T15:49:44.239Z,8.85
2022-11-07T15:52:32.940Z,9.48
2022-11-07T15:55:24.122Z,9.60
2022-11-07T15:58:15.969Z,9.48
2022-11-07T16:01:04.982Z,9.38
2022-11-07T16:03:55.597Z,8.57
2022-11-07T16:06:46.267Z,9.32
2022-11-07T16:09:35.037Z,8.85
2022-11-07T16:12:23.667Z,9.32
2022-11-07T16:15:14.095Z,9.13
2022-11-07T16:18:03.181Z,9.38
2022-11-07T16:20:53.932Z,9.95
2022-11-07T16:23:44.697Z,9.73
2022-11-07T16:26:33.759Z,9.55
2022-11-07T16:29:22.376Z,9.93
2022-11-07T16:32:18.064Z,9.98
2022-11-07T16:35:07.670Z,9.82
2022-11-07T16:38:00.153Z,10.32
2022-11-07T16:40:48.947Z,10.82
2022-11-07T16:43:38.158Z,10.38
2022-11-07T16:46:28.773Z,11.05
2022-11-07T16:49:27.479Z,10.70
2022-11-07T16:52:16.826Z,10.57
2022-11-07T16:55:08.109Z,10.82
2022-11-07T16:57:56.772Z,10.75
2022-11-07T17:00:45.553Z,10.73
2022-11-07T17:03:35.473Z,11.35
2022-11-07T17:06:28.694Z,10.57
2022-11-07T17:09:20.471Z,11.23
2022-11-07T17:12:14.296Z,11.93
2022-11-07T17:15:03.251Z,11.10
2022-11-07T17:17:56.428Z,10.65
2022-11-07T17:20:52.076Z,11.40
2022-11-07T17:23:41.103Z,11.48
2022-11-07T17:26:33.974Z,12.32
2022-11-07T17:29:24.052Z,10.63
2022-11-07T17:32:12.959Z,11.35
2022-11-07T17:35:26.073Z,10.88
2022-11-07T17:38:16.432Z,10.65
2022-11-07T17:41:17.297Z,10.98
2022-11-07T17:44:06.284Z,10.68
2022-11-07T17:46:56.577Z,10.88
2022-11-07T17:49:45.326Z,10.98
2022-11-07T17:52:33.996Z,11.15
2022-11-07T17:55:24.708Z,10.90
2022-11-07T17:58:13.572Z,11.20
2022-11-07T18:01:02.389Z,11.95
2022-11-07T18:03:53.985Z,11.18
2022-11-07T18:06:44.455Z,12.32
2022-11-07T18:09:33.192Z,11.75
2022-11-07T18:12:22.031Z,11.35
2022-11-07T18:15:13.056Z,11.80
2022-11-07T18:18:04.450Z,11.82
2022-11-07T18:21:00.050Z,12.00
2022-11-07T18:23:48.786Z,11.70
2022-11-07T18:26:38.907Z,11.88
2022-11-07T18:29:27.621Z,11.13
2022-11-07T18:32:16.271Z,11.07
2022-11-07T18:35:06.255Z,11.77
2022-11-07T18:37:56.552Z,10.80
2022-11-07T18:40:56.014Z,11.15
2022-11-07T18:43:44.730Z,10.68
2022-11-07T18:46:33.838Z,11.02
2022-11-07T18:49:24.227Z,10.70
2022-11-07T18:52:13.526Z,11.60
2022-11-07T18:55:04.246Z,11.63
2022-11-07T18:57:53.284Z,10.90
2022-11-07T19:00:45.329Z,11.55
2022-11-07T19:03:34.702Z,11.25
2022-11-07T19:06:25.581Z,11.65
2022-11-07T19:09:14.442Z,11.82
2022-11-07T19:12:05.018Z,11.65
2022-11-07T19:14:53.725Z,11.48
2022-11-07T19:17:42.638Z,10.90
2022-11-07T19:20:31.872Z,11.45
2022-11-07T19:23:20.876Z,12.48
2022-11-07T19:26:13.671Z,11.90
2022-11-07T19:29:04.894Z,12.23
2022-11-07T19:31:53.860Z,11.63
2022-11-07T19:34:42.768Z,11.98
2022-11-07T19:37:31.848Z,12.25
2022-11-07T19:40:20.878Z,11.68
2022-11-07T19:43:10.254Z,11.05
2022-11-07T19:46:01.374Z,12.00
2022-11-07T19:48:51.205Z,12.32
2022-11-07T19:51:40.125Z,10.90
2022-11-07T19:54:29.100Z,11.57
2022-11-07T19:57:18.655Z,11.30
2022-11-07T20:00:10.257Z,10.68
2022-11-07T20:03:00.420Z,11.35
2022-11-07T20:05:51.239Z,10.88
2022-11-07T20:08:40.568Z,10.85
2022-11-07T20:11:30.001Z,11.30
2022-11-07T20:14:18.653Z,11.43
2022-11-07T20:17:07.683Z,11.13
2022-11-07T20:20:03.454Z,10.82
2022-11-07T20:22:54.213Z,11.65
2022-11-07T20:25:43.440Z,11.95
2022-11-07T20:28:32.139Z,12.35
2022-11-07T20:31:23.771Z,12.20
2022-11-07T20:34:15.603Z,11.65
2022-11-07T20:37:05.971Z,12.00
2022-11-07T20:39:54.836Z,12.02
2022-11-07T20:42:43.614Z,11.38
2022-11-07T20:45:32.258Z,12.60
2022-11-07T20:48:21.309Z,11.85
2022-11-07T20:51:11.114Z,13.40
2022-11-07T20:54:01.732Z,12.18
2022-11-07T20:56:52.293Z,13.82
2022-11-07T20:59:42.301Z,13.68
2022-11-07T21:02:31.105Z,14.13
2022-11-07T21:05:20.061Z,14.20
2022-11-07T21:08:08.790Z,14.77
2022-11-07T21:10:58.968Z,14.38
2022-11-07T21:13:52.700Z,16.00
2022-11-07T21:16:41.761Z,13.65
2022-11-07T21:19:30.641Z,14.32
2022-11-07T21:22:19.311Z,13.55
2022-11-07T21:25:09.051Z,14.98
2022-11-07T21:27:59.147Z,14.30
2022-11-07T21:31:00.004Z,15.13
2022-11-07T21:33:48.793Z,14.43
2022-11-07T21:36:37.484Z,14.88
2022-11-07T21:39:26.571Z,14.85
2022-11-07T21:42:15.227Z,14.43
2022-11-07T21:45:05.960Z,14.02
2022-11-07T21:47:54.589Z,15.43
2022-11-07T21:50:44.959Z,15.05
2022-11-07T21:53:37.619Z,15.35
2022-11-07T21:56:28.547Z,14.75
2022-11-07T21:59:19.387Z,14.40
2022-11-07T22:02:12.777Z,14.93
2022-11-07T22:05:01.882Z,15.98
2022-11-07T22:07:51.312Z,14.80
2022-11-07T22:10:40.169Z,14.90
2022-11-07T22:13:28.791Z,15.43
2022-11-07T22:16:20.193Z,15.05
2022-11-07T22:19:12.698Z,15.68
2022-11-07T22:22:01.869Z,13.98
2022-11-07T22:24:50.884Z,14.45
2022-11-07T22:27:39.575Z,15.02
2022-11-07T22:30:28.143Z,14.90
2022-11-07T22:33:17.277Z,14.65
2022-11-07T22:36:09.353Z,15.18
2022-11-07T22:38:58.891Z,14.82
2022-11-07T22:41:47.853Z,13.68
2022-11-07T22:44:36.598Z,14.75
2022-11-07T22:47:25.641Z,14.02
2022-11-07T22:50:14.258Z,14.63
2022-11-07T22:53:04.551Z,14.95
2022-11-07T22:55:56.653Z,14.07
2022-11-07T22:58:46.272Z,15.02
2022-11-07T23:01:36.710Z,14.30
2022-11-07T23:04:28.677Z,14.88
2022-11-07T23:07:21.246Z,13.25
2022-11-07T23:10:11.986Z,14.38
2022-11-07T23:13:03.917Z,14.45
2022-11-07T23:15:52.674Z,13.95
2022-11-07T23:18:41.383Z,14.43
2022-11-07T23:21:30.624Z,14.32
2022-11-07T23:24:20.617Z,14.77
2022-11-07T23:27:10.691Z,14.60
2022-11-07T23:29:59.380Z,13.35
2022-11-07T23:32:48.022Z,14.23
2022-11-07T23:35:36.681Z,14.13
2022-11-07T23:38:27.663Z,14.48
2022-11-07T23:41:17.170Z,14.50
2022-11-07T23:44:07.391Z,14.75
2022-11-07T23:47:13.552Z,14.23
2022-11-07T23:50:19.788Z,13.02
2022-11-07T23:53:29.902Z,13.10
2022-11-07T23:56:18.172Z,13.90
2022-11-07T23:59:25.756Z,14.13
